createdAt,value
2022-11-23T00:00:33.283Z,0.40
2022-11-23T00:02:46.749Z,0.52
2022-11-23T00:05:05.881Z,0.30
2022-11-23T00:07:29.851Z,0.30
2022-11-23T00:09:34.530Z,0.20
2022-11-23T00:11:38.315Z,0.20
2022-11-23T00:13:40.822Z,0.30
2022-11-23T00:15:43.405Z,0.20
2022-11-23T00:17:46.897Z,0.40
2022-11-23T00:19:48.331Z,0.20
2022-11-23T00:21:49.992Z,0.20
2022-11-23T00:23:51.924Z,0.20
2022-11-23T00:25:53.441Z,0.30
2022-11-23T00:27:54.948Z,0.32
2022-11-23T00:29:56.501Z,0.22
2022-11-23T00:31:57.954Z,0.65
2022-11-23T00:33:59.499Z,2.10
2022-11-23T00:36:05.371Z,0.30
2022-11-23T00:38:06.826Z,0.20
2022-11-23T00:40:08.756Z,0.45
2022-11-23T00:42:10.732Z,0.20
2022-11-23T00:44:12.271Z,0.30
2022-11-23T00:46:18.018Z,0.38
2022-11-23T00:48:19.468Z,0.40
2022-11-23T00:50:21.154Z,0.30
2022-11-23T00:52:22.640Z,0.32
2022-11-23T00:54:24.117Z,0.63
2022-11-23T00:56:26.310Z,0.80
2022-11-23T00:58:27.736Z,0.25
2022-11-23T01:00:29.177Z,0.35
2022-11-23T01:02:30.795Z,0.30
2022-11-23T01:04:32.250Z,0.20
2022-11-23T01:06:34.850Z,0.20
2022-11-23T01:08:36.959Z,0.25
2022-11-23T01:10:38.439Z,0.25
2022-11-23T01:12:39.882Z,0.20
2022-11-23T01:14:41.490Z,0.40
2022-11-23T01:16:43.039Z,0.30
2022-11-23T01:18:44.703Z,0.30
2022-11-23T01:20:46.426Z,0.20
2022-11-23T01:22:47.858Z,0.20
2022-11-23T01:24:49.717Z,0.77
2022-11-23T01:26:54.927Z,0.30
2022-11-23T01:28:56.378Z,0.20
2022-11-23T01:31:08.000Z,0.35
2022-11-23T01:33:09.537Z,0.30
2022-11-23T01:35:11.313Z,0.43
2022-11-23T01:37:12.890Z,0.30
2022-11-23T01:39:14.621Z,0.20
2022-11-23T01:41:23.569Z,0.20
2022-11-23T01:43:25.037Z,0.20
2022-11-23T01:45:29.611Z,0.20
2022-11-23T01:47:31.220Z,0.20
2022-11-23T01:49:37.437Z,0.45
2022-11-23T01:51:41.004Z,0.40
2022-11-23T01:53:42.950Z,0.20
2022-11-23T01:55:46.454Z,0.20
2022-11-23T01:57:48.289Z,0.57
2022-11-23T01:59:50.888Z,0.20
2022-11-23T02:01:52.609Z,0.30
2022-11-23T02:03:56.023Z,0.30
2022-11-23T02:06:01.634Z,0.20
2022-11-23T02:08:03.244Z,0.30
2022-11-23T02:10:04.915Z,0.20
2022-11-23T02:12:15.481Z,0.40
2022-11-23T02:14:22.021Z,0.30
2022-11-23T02:16:25.124Z,0.55
2022-11-23T02:18:28.874Z,0.35
2022-11-23T02:20:30.473Z,0.30
2022-11-23T02:22:39.336Z,0.30
2022-11-23T02:24:45.641Z,0.32
2022-11-23T02:26:47.274Z,1.27
2022-11-23T02:28:58.442Z,0.40
2022-11-23T02:31:00.651Z,0.45
2022-11-23T02:33:04.150Z,0.68
2022-11-23T02:35:05.674Z,0.20
2022-11-23T02:37:08.706Z,0.30
2022-11-23T02:39:18.237Z,0.32
2022-11-23T02:41:22.296Z,0.30
2022-11-23T02:43:27.192Z,0.60
2022-11-23T02:45:43.305Z,0.43
2022-11-23T02:47:47.676Z,0.30
2022-11-23T02:49:51.949Z,0.30
2022-11-23T02:51:55.890Z,0.30
2022-11-23T02:54:00.004Z,0.20
2022-11-23T02:56:04.157Z,0.40
2022-11-23T02:58:08.466Z,0.40
2022-11-23T03:02:16.495Z,0.28
2022-11-23T03:04:26.042Z,0.30
2022-11-23T03:06:32.491Z,0.47
2022-11-23T03:10:40.847Z,0.60
2022-11-23T03:12:45.104Z,0.68
2022-11-23T03:16:48.469Z,1.00
2022-11-23T03:18:50.385Z,0.60
2022-11-23T03:20:52.074Z,0.50
2022-11-23T03:22:53.756Z,0.63
2022-11-23T03:24:55.292Z,0.68
2022-11-23T03:26:56.709Z,1.40
2022-11-23T03:28:58.429Z,4.80
2022-11-23T03:30:59.929Z,2.78
2022-11-23T03:33:01.562Z,2.10
2022-11-23T03:35:03.800Z,1.88
2022-11-23T03:37:05.291Z,1.85
2022-11-23T03:39:07.002Z,1.52
2022-11-23T03:41:09.396Z,2.03
2022-11-23T03:43:10.873Z,2.58
2022-11-23T03:45:12.342Z,1.48
2022-11-23T03:47:13.861Z,1.02
2022-11-23T03:49:15.330Z,1.27
2022-11-23T03:51:16.799Z,1.65
2022-11-23T03:53:18.361Z,0.63
2022-11-23T03:55:19.801Z,2.42
2022-11-23T03:57:21.241Z,1.60
2022-11-23T03:59:22.717Z,1.25
2022-11-23T04:01:24.264Z,5.97
2022-11-23T04:03:25.723Z,7.13
2022-11-23T04:05:27.991Z,8.18
2022-11-23T04:07:29.555Z,10.35
2022-11-23T04:09:31.264Z,14.27
2022-11-23T04:11:33.097Z,8.10
2022-11-23T04:13:34.567Z,7.82
2022-11-23T04:15:36.198Z,13.25
2022-11-23T04:17:37.969Z,9.52
2022-11-23T04:19:39.746Z,11.02
2022-11-23T04:21:41.284Z,8.77
2022-11-23T04:23:42.996Z,18.98
2022-11-23T04:25:45.258Z,15.15
2022-11-23T04:27:46.829Z,19.02
2022-11-23T04:29:48.441Z,13.05
2022-11-23T04:31:50.122Z,14.80
2022-11-23T04:33:51.614Z,8.35
2022-11-23T04:35:53.253Z,7.40
2022-11-23T04:37:54.733Z,18.02
2022-11-23T04:39:56.270Z,13.02
2022-11-23T04:41:57.759Z,13.65
2022-11-23T04:43:59.333Z,16.63
2022-11-23T04:46:00.895Z,16.55
2022-11-23T04:48:02.621Z,12.02
2022-11-23T04:50:04.317Z,17.20
2022-11-23T04:52:06.368Z,17.67
2022-11-23T04:54:07.973Z,14.75
2022-11-23T04:56:09.390Z,15.57
2022-11-23T04:58:11.002Z,12.68
2022-11-23T05:00:13.121Z,12.32
2022-11-23T05:02:14.645Z,12.70
2022-11-23T05:04:17.895Z,12.63
2022-11-23T05:06:19.836Z,9.38
2022-11-23T05:08:21.295Z,16.90
2022-11-23T05:10:22.798Z,7.95
2022-11-23T05:12:24.392Z,17.70
2022-11-23T05:14:25.956Z,9.30
2022-11-23T05:16:27.646Z,13.63
2022-11-23T05:18:29.145Z,14.07
2022-11-23T05:20:30.593Z,6.95
2022-11-23T05:22:32.375Z,10.85
2022-11-23T05:24:34.368Z,12.30
2022-11-23T05:26:35.964Z,7.05
2022-11-23T05:28:40.724Z,10.88
2022-11-23T05:30:43.121Z,12.88
2022-11-23T05:32:44.634Z,13.05
2022-11-23T05:34:46.856Z,10.07
2022-11-23T05:36:48.551Z,16.05
2022-11-23T05:38:51.589Z,17.88
2022-11-23T05:40:53.218Z,15.13
2022-11-23T05:42:57.801Z,12.52
2022-11-23T05:45:15.548Z,19.10
2022-11-23T05:47:39.432Z,11.48
2022-11-23T05:50:00.981Z,14.02
2022-11-23T05:52:16.848Z,10.15
2022-11-23T05:54:32.894Z,10.05
2022-11-23T05:56:49.123Z,12.43
2022-11-23T05:59:02.965Z,10.77
2022-11-23T06:01:17.048Z,9.20
2022-11-23T06:03:26.707Z,9.73
2022-11-23T06:05:42.483Z,10.48
2022-11-23T06:07:58.467Z,7.05
2022-11-23T06:10:21.129Z,10.38
2022-11-23T06:12:37.888Z,6.25
2022-11-23T06:14:57.868Z,8.32
2022-11-23T06:17:16.761Z,6.88
2022-11-23T06:19:30.844Z,9.80
2022-11-23T06:21:34.239Z,3.40
2022-11-23T06:23:35.973Z,7.70
2022-11-23T06:25:39.002Z,4.68
2022-11-23T06:27:40.425Z,6.25
2022-11-23T06:29:42.116Z,5.55
2022-11-23T06:31:43.534Z,12.20
2022-11-23T06:33:44.962Z,6.35
2022-11-23T06:35:56.690Z,10.75
2022-11-23T06:37:58.133Z,10.25
2022-11-23T06:39:59.586Z,7.18
2022-11-23T06:42:16.846Z,7.88
2022-11-23T06:44:22.441Z,5.70
2022-11-23T06:46:23.877Z,7.28
2022-11-23T06:48:25.325Z,9.70
2022-11-23T06:50:27.016Z,7.70
2022-11-23T06:52:28.732Z,9.57
2022-11-23T06:54:30.216Z,5.38
2022-11-23T06:56:32.077Z,8.07
2022-11-23T06:58:34.248Z,4.57
2022-11-23T07:00:35.785Z,9.43
2022-11-23T07:02:37.491Z,7.32
2022-11-23T07:04:39.080Z,8.05
2022-11-23T07:06:41.625Z,9.25
2022-11-23T07:08:44.072Z,5.25
2022-11-23T07:10:46.004Z,4.57
2022-11-23T07:12:47.530Z,6.38
2022-11-23T07:14:49.134Z,4.30
2022-11-23T07:16:50.653Z,7.95
2022-11-23T07:18:52.117Z,5.32
2022-11-23T07:20:53.909Z,7.03
2022-11-23T07:23:02.152Z,4.18
2022-11-23T07:25:04.285Z,9.18
2022-11-23T07:27:05.775Z,3.10
2022-11-23T07:29:07.259Z,4.57
2022-11-23T07:31:08.762Z,2.72
2022-11-23T07:33:11.510Z,4.07
2022-11-23T07:35:13.184Z,4.22
2022-11-23T07:37:14.630Z,10.82
2022-11-23T07:39:16.062Z,7.80
2022-11-23T07:41:17.493Z,4.30
2022-11-23T07:43:18.982Z,5.82
2022-11-23T07:45:20.415Z,8.27
2022-11-23T07:47:22.264Z,4.85
2022-11-23T07:49:23.713Z,15.40
2022-11-23T07:51:25.292Z,11.20
2022-11-23T07:53:27.244Z,11.18
2022-11-23T07:55:28.825Z,6.68
2022-11-23T07:57:30.563Z,7.32
2022-11-23T07:59:32.404Z,12.23
2022-11-23T08:01:34.168Z,9.55
2022-11-23T08:03:35.867Z,7.90
2022-11-23T08:05:37.411Z,4.07
2022-11-23T08:07:39.081Z,8.90
2022-11-23T08:09:40.595Z,12.02
2022-11-23T08:11:42.587Z,2.85
2022-11-23T08:13:44.394Z,4.22
2022-11-23T08:15:51.863Z,6.95
2022-11-23T08:17:56.668Z,5.93
2022-11-23T08:19:58.192Z,8.32
2022-11-23T08:21:59.761Z,4.45
2022-11-23T08:24:01.584Z,5.80
2022-11-23T08:26:06.681Z,4.72
2022-11-23T08:28:12.335Z,3.35
2022-11-23T08:30:14.190Z,3.67
2022-11-23T08:32:15.686Z,3.03
2022-11-23T08:34:18.728Z,4.40
2022-11-23T08:36:20.877Z,3.50
2022-11-23T08:38:22.434Z,2.42
2022-11-23T08:40:25.854Z,2.53
2022-11-23T08:42:27.770Z,2.85
2022-11-23T08:44:29.343Z,3.47
2022-11-23T08:46:31.128Z,5.53
2022-11-23T08:48:35.527Z,1.13
2022-11-23T08:50:53.698Z,3.60
2022-11-23T08:53:08.803Z,3.53
2022-11-23T08:55:19.700Z,3.47
2022-11-23T08:57:33.749Z,7.90
2022-11-23T08:59:51.972Z,4.25
2022-11-23T09:02:05.149Z,6.90
2022-11-23T09:04:21.685Z,2.92
2022-11-23T09:06:42.802Z,7.45
2022-11-23T09:08:54.829Z,6.20
2022-11-23T09:11:07.133Z,3.22
2022-11-23T09:13:21.999Z,8.13
2022-11-23T09:15:33.691Z,3.95
2022-11-23T09:17:44.313Z,3.97
2022-11-23T09:19:51.699Z,2.45
2022-11-23T09:21:59.398Z,6.13
2022-11-23T09:24:08.207Z,11.68
2022-11-23T09:26:12.862Z,6.93
2022-11-23T09:28:29.083Z,8.00
2022-11-23T09:30:30.765Z,4.32
2022-11-23T09:32:32.708Z,3.70
2022-11-23T09:34:34.504Z,4.75
2022-11-23T09:36:36.365Z,6.93
2022-11-23T09:38:55.681Z,5.85
2022-11-23T09:41:18.383Z,9.25
2022-11-23T09:43:38.611Z,5.40
2022-11-23T09:45:44.775Z,4.15
2022-11-23T09:47:54.395Z,2.80
2022-11-23T09:50:03.372Z,3.85
2022-11-23T09:52:09.245Z,4.13
2022-11-23T09:54:23.336Z,1.27
2022-11-23T09:56:30.215Z,2.58
2022-11-23T09:58:35.451Z,3.28
2022-11-23T10:00:38.273Z,6.30
2022-11-23T10:02:40.454Z,5.45
2022-11-23T10:04:43.159Z,7.55
2022-11-23T10:06:45.077Z,10.25
2022-11-23T10:08:49.683Z,8.45
2022-11-23T10:10:56.409Z,6.25
2022-11-23T10:13:04.072Z,4.50
2022-11-23T10:15:11.451Z,4.55
2022-11-23T10:17:31.884Z,6.07
2022-11-23T10:19:52.242Z,9.55
2022-11-23T10:21:55.092Z,6.70
2022-11-23T10:24:02.855Z,9.53
2022-11-23T10:26:04.485Z,10.25
2022-11-23T10:28:13.541Z,7.32
2022-11-23T10:30:16.548Z,7.07
2022-11-23T10:32:32.792Z,13.43
2022-11-23T10:34:37.066Z,7.00
2022-11-23T10:36:39.016Z,8.68
2022-11-23T10:38:41.347Z,8.32
2022-11-23T10:40:57.717Z,6.43
2022-11-23T10:43:14.214Z,5.70
2022-11-23T10:45:26.705Z,7.63
2022-11-23T10:47:35.847Z,4.20
2022-11-23T10:49:37.469Z,7.18
2022-11-23T10:51:39.679Z,8.10
2022-11-23T10:53:41.394Z,5.38
2022-11-23T10:56:02.839Z,7.68
2022-11-23T10:58:04.551Z,10.20
2022-11-23T11:00:09.754Z,11.10
2022-11-23T11:02:19.089Z,11.98
2022-11-23T11:04:25.731Z,9.98
2022-11-23T11:06:28.646Z,11.15
2022-11-23T11:08:37.429Z,7.32
2022-11-23T11:10:41.216Z,7.38
2022-11-23T11:12:50.924Z,7.97
2022-11-23T11:15:15.848Z,9.18
2022-11-23T11:19:29.802Z,15.57
2022-11-23T11:21:33.676Z,9.02
2022-11-23T11:23:38.914Z,8.75
2022-11-23T11:25:40.424Z,14.07
2022-11-23T11:27:51.129Z,7.50
2022-11-23T11:29:54.789Z,14.43
2022-11-23T11:31:59.258Z,13.93
2022-11-23T11:34:03.590Z,17.58
2022-11-23T11:36:06.062Z,14.20
2022-11-23T11:38:17.177Z,16.00
2022-11-23T11:40:26.122Z,10.63
2022-11-23T11:42:32.295Z,9.25
2022-11-23T11:44:36.991Z,10.20
2022-11-23T11:46:40.836Z,9.85
2022-11-23T11:48:47.810Z,6.95
2022-11-23T11:50:52.579Z,9.70
2022-11-23T11:53:03.120Z,9.23
2022-11-23T11:55:17.864Z,9.50
2022-11-23T11:57:32.655Z,8.13
2022-11-23T11:59:48.058Z,14.48
2022-11-23T12:01:56.844Z,11.48
2022-11-23T12:04:14.847Z,12.00
2022-11-23T12:06:26.749Z,9.05
2022-11-23T12:08:54.522Z,9.25
2022-11-23T12:11:05.365Z,9.40
2022-11-23T12:13:20.617Z,6.60
2022-11-23T12:15:52.311Z,5.97
2022-11-23T12:18:02.017Z,14.05
2022-11-23T12:20:09.358Z,10.20
2022-11-23T12:22:24.597Z,13.80
2022-11-23T12:24:34.648Z,13.27
2022-11-23T12:26:48.501Z,7.72
2022-11-23T12:28:54.323Z,11.93
2022-11-23T12:31:16.404Z,8.80
2022-11-23T12:33:32.242Z,16.70
2022-11-23T12:35:41.189Z,12.20
2022-11-23T12:37:42.863Z,15.30
2022-11-23T12:39:47.818Z,12.80
2022-11-23T12:41:56.161Z,10.82
2022-11-23T12:44:13.954Z,14.18
2022-11-23T12:46:30.784Z,9.73
2022-11-23T12:48:32.370Z,19.13
2022-11-23T12:50:40.033Z,13.93
2022-11-23T12:53:03.575Z,17.35
2022-11-23T12:55:05.018Z,13.65
2022-11-23T12:57:08.983Z,12.18
2022-11-23T12:59:11.860Z,11.98
2022-11-23T13:01:19.214Z,14.30
2022-11-23T13:03:26.832Z,10.73
2022-11-23T13:05:43.728Z,16.63
2022-11-23T13:07:49.449Z,11.65
2022-11-23T13:09:56.904Z,14.55
2022-11-23T13:11:58.897Z,10.35
2022-11-23T13:14:06.338Z,8.13
2022-11-23T13:16:26.914Z,10.80
2022-11-23T13:18:46.841Z,12.88
2022-11-23T13:21:02.915Z,11.23
2022-11-23T13:23:06.881Z,20.48
2022-11-23T13:25:08.331Z,9.95
2022-11-23T13:27:12.866Z,8.02
2022-11-23T13:29:34.588Z,15.00
2022-11-23T13:31:36.356Z,7.28
2022-11-23T13:33:38.773Z,7.80
2022-11-23T13:35:40.263Z,9.98
2022-11-23T13:37:57.601Z,8.60
2022-11-23T13:40:02.025Z,12.32
2022-11-23T13:42:03.622Z,10.13
2022-11-23T13:44:20.362Z,13.40
2022-11-23T13:46:29.102Z,12.10
2022-11-23T13:50:56.849Z,14.20
2022-11-23T13:52:58.690Z,11.32
2022-11-23T13:55:09.376Z,12.32
2022-11-23T13:57:13.300Z,7.25
2022-11-23T13:59:14.832Z,6.38
2022-11-23T14:01:36.546Z,6.15
2022-11-23T14:03:52.010Z,5.85
2022-11-23T14:05:55.948Z,6.82
2022-11-23T14:07:58.914Z,5.25
2022-11-23T14:10:17.051Z,7.05
2022-11-23T14:12:22.917Z,17.73
2022-11-23T14:14:27.940Z,10.68
2022-11-23T14:16:49.423Z,13.43
2022-11-23T14:18:50.995Z,11.85
2022-11-23T14:21:01.988Z,10.50
2022-11-23T14:23:06.300Z,14.35
2022-11-23T14:25:16.974Z,11.23
2022-11-23T14:27:46.952Z,12.95
2022-11-23T14:29:55.048Z,8.65
2022-11-23T14:31:59.562Z,11.18
2022-11-23T14:34:19.907Z,11.80
2022-11-23T14:36:37.545Z,9.90
2022-11-23T14:38:58.551Z,15.38
2022-11-23T14:41:08.312Z,11.23
2022-11-23T14:43:13.152Z,12.00
2022-11-23T14:45:15.665Z,14.52
2022-11-23T14:47:25.040Z,18.13
2022-11-23T14:49:26.515Z,13.00
2022-11-23T14:51:28.662Z,9.68
2022-11-23T14:53:33.062Z,11.98
2022-11-23T14:55:34.766Z,8.20
2022-11-23T14:57:43.941Z,10.52
2022-11-23T14:59:58.180Z,11.52
2022-11-23T15:02:07.751Z,10.70
2022-11-23T15:04:42.521Z,11.43
2022-11-23T15:06:48.547Z,17.02
2022-11-23T15:09:07.213Z,10.52
2022-11-23T15:11:15.014Z,15.63
2022-11-23T15:13:31.453Z,12.27
2022-11-23T15:15:42.591Z,10.60
2022-11-23T15:17:56.720Z,11.07
2022-11-23T15:20:02.039Z,20.25
2022-11-23T15:22:20.343Z,17.05
2022-11-23T15:24:27.065Z,18.10
2022-11-23T15:26:47.983Z,12.50
2022-11-23T15:29:04.280Z,13.05
2022-11-23T15:31:19.668Z,15.55
2022-11-23T15:33:29.820Z,10.60
2022-11-23T15:37:49.094Z,7.80
2022-11-23T15:39:57.890Z,9.30
2022-11-23T15:42:00.718Z,8.70
2022-11-23T15:44:14.778Z,5.15
2022-11-23T15:46:16.721Z,9.32
2022-11-23T15:48:19.850Z,6.20
2022-11-23T15:50:22.324Z,6.55
2022-11-23T15:52:23.839Z,8.63
2022-11-23T15:54:28.080Z,7.63
2022-11-23T15:56:31.563Z,6.80
2022-11-23T15:58:33.872Z,7.90
2022-11-23T16:00:36.445Z,7.93
2022-11-23T16:02:38.464Z,7.10
2022-11-23T16:04:41.080Z,9.52
2022-11-23T16:06:47.194Z,8.68
2022-11-23T16:08:49.001Z,9.15
2022-11-23T16:10:54.762Z,10.52
2022-11-23T16:13:00.322Z,10.02
2022-11-23T16:15:22.642Z,11.85
2022-11-23T16:17:25.553Z,14.30
2022-11-23T16:19:28.848Z,11.60
2022-11-23T16:21:31.618Z,11.63
2022-11-23T16:23:44.316Z,11.80
2022-11-23T16:25:55.608Z,12.68
2022-11-23T16:28:15.021Z,10.65
2022-11-23T16:30:24.950Z,28.45
2022-11-23T16:32:30.401Z,17.88
2022-11-23T16:34:32.317Z,19.20
2022-11-23T16:36:34.030Z,13.88
2022-11-23T16:38:35.470Z,14.43
2022-11-23T16:40:36.910Z,7.20
2022-11-23T16:42:38.530Z,8.82
2022-11-23T16:44:41.959Z,7.05
2022-11-23T16:46:44.143Z,10.77
2022-11-23T16:48:45.781Z,13.20
2022-11-23T16:50:47.217Z,10.40
2022-11-23T16:52:49.068Z,16.08
2022-11-23T16:54:50.972Z,12.68
2022-11-23T16:56:53.002Z,27.42
2022-11-23T16:58:55.372Z,29.35
2022-11-23T17:00:56.856Z,22.35
2022-11-23T17:03:00.375Z,26.40
2022-11-23T17:05:01.946Z,25.48
2022-11-23T17:07:04.187Z,28.45
2022-11-23T17:09:08.042Z,26.08
2022-11-23T17:13:12.825Z,31.83
2022-11-23T17:15:14.396Z,27.25
2022-11-23T17:17:18.427Z,18.77
2022-11-23T17:19:21.635Z,16.23
2022-11-23T17:21:23.560Z,22.17
2022-11-23T17:23:25.708Z,16.95
2022-11-23T17:25:27.454Z,24.63
2022-11-23T17:27:29.235Z,14.82
2022-11-23T17:29:37.772Z,14.88
2022-11-23T17:31:43.672Z,12.75
2022-11-23T17:33:45.313Z,19.73
2022-11-23T17:35:47.074Z,25.10
2022-11-23T17:37:48.949Z,15.82
2022-11-23T17:39:51.157Z,14.70
2022-11-23T17:41:52.678Z,11.10
2022-11-23T17:43:55.300Z,13.32
2022-11-23T17:45:56.989Z,11.50
2022-11-23T17:48:03.137Z,10.63
2022-11-23T17:50:07.091Z,12.55
2022-11-23T17:52:10.666Z,15.27
2022-11-23T17:54:12.414Z,13.82
2022-11-23T17:56:18.009Z,13.60
2022-11-23T17:58:19.527Z,13.02
2022-11-23T18:00:22.471Z,8.48
2022-11-23T18:02:24.062Z,7.53
2022-11-23T18:04:27.853Z,8.30
2022-11-23T18:11:39.227Z,12.05
2022-11-23T18:13:43.825Z,8.25
2022-11-23T18:15:48.281Z,5.68
2022-11-23T18:17:53.671Z,6.47
2022-11-23T18:19:58.142Z,6.35
2022-11-23T18:22:03.763Z,8.68
2022-11-23T18:24:09.659Z,7.90
2022-11-23T18:26:17.730Z,10.40
2022-11-23T18:28:21.296Z,5.35
2022-11-23T18:30:25.796Z,2.38
2022-11-23T18:32:30.384Z,6.60
2022-11-23T18:34:35.034Z,9.02
2022-11-23T18:36:38.857Z,9.60
2022-11-23T18:38:46.420Z,8.57
2022-11-23T18:40:50.254Z,11.07
2022-11-23T18:42:55.171Z,11.52
2022-11-23T18:44:57.146Z,10.30
2022-11-23T18:46:59.013Z,7.28
2022-11-23T18:49:00.450Z,15.32
2022-11-23T18:51:03.389Z,10.48
2022-11-23T18:53:06.230Z,9.05
2022-11-23T18:55:08.400Z,14.77
2022-11-23T18:57:09.977Z,11.93
2022-11-23T18:59:23.989Z,11.77
2022-11-23T19:01:33.019Z,19.75
2022-11-23T19:03:35.614Z,20.42
2022-11-23T19:05:37.182Z,14.20
2022-11-23T19:07:38.958Z,17.52
2022-11-23T19:09:41.210Z,16.88
2022-11-23T19:11:43.492Z,10.18
2022-11-23T19:13:45.958Z,10.35
2022-11-23T19:15:47.813Z,17.30
2022-11-23T19:17:49.452Z,14.43
2022-11-23T19:19:51.106Z,13.00
2022-11-23T19:21:52.601Z,12.73
2022-11-23T19:23:54.844Z,17.20
2022-11-23T19:26:00.951Z,20.70
2022-11-23T19:28:02.531Z,17.08
2022-11-23T19:30:05.237Z,18.75
2022-11-23T19:32:06.938Z,26.58
2022-11-23T19:34:10.718Z,21.40
2022-11-23T19:36:19.693Z,18.23
2022-11-23T19:38:21.470Z,20.95
2022-11-23T19:40:22.941Z,12.23
2022-11-23T19:42:24.442Z,12.18
2022-11-23T19:44:25.944Z,13.02
2022-11-23T19:46:27.958Z,8.63
2022-11-23T19:48:30.691Z,12.27
2022-11-23T19:50:32.116Z,16.15
2022-11-23T19:53:03.573Z,13.10
2022-11-23T19:54:55.332Z,15.77
2022-11-23T19:56:57.263Z,19.77
2022-11-23T19:59:00.049Z,12.70
2022-11-23T20:03:34.815Z,11.38
2022-11-23T20:05:36.303Z,14.02
2022-11-23T20:07:37.795Z,11.30
2022-11-23T20:09:39.423Z,11.55
2022-11-23T20:11:41.007Z,9.98
2022-11-23T20:13:47.801Z,12.52
2022-11-23T20:15:50.040Z,12.93
2022-11-23T20:17:51.597Z,9.70
2022-11-23T20:19:53.241Z,11.98
2022-11-23T20:21:56.516Z,16.50
2022-11-23T20:24:05.082Z,15.20
2022-11-23T20:26:07.969Z,11.32
2022-11-23T20:28:13.188Z,8.15
2022-11-23T20:30:17.971Z,8.38
2022-11-23T20:32:19.437Z,10.20
2022-11-23T20:34:26.137Z,11.02
2022-11-23T20:36:29.782Z,13.85
2022-11-23T20:38:35.221Z,7.10
2022-11-23T20:40:37.560Z,9.48
2022-11-23T20:42:39.336Z,5.47
2022-11-23T20:44:40.796Z,7.68
2022-11-23T20:49:04.191Z,6.50
2022-11-23T20:51:10.200Z,7.65
2022-11-23T20:53:12.211Z,10.00
2022-11-23T20:55:16.249Z,8.70
2022-11-23T20:57:17.700Z,9.68
2022-11-23T20:59:20.990Z,10.30
2022-11-23T21:01:23.103Z,23.70
2022-11-23T21:03:24.707Z,7.53
2022-11-23T21:05:27.170Z,5.63
2022-11-23T21:07:29.237Z,5.15
2022-11-23T21:09:31.167Z,5.72
2022-11-23T21:11:54.589Z,4.95
2022-11-23T21:16:36.607Z,16.88
2022-11-23T21:18:49.909Z,15.93
2022-11-23T21:21:00.289Z,22.63
2022-11-23T21:23:11.772Z,11.77
2022-11-23T21:25:27.212Z,14.63
2022-11-23T21:27:42.369Z,16.02
2022-11-23T21:29:55.013Z,12.40
2022-11-23T21:32:08.388Z,13.98
2022-11-23T21:34:36.372Z,7.28
2022-11-23T21:36:49.699Z,8.98
2022-11-23T21:39:03.699Z,18.05
2022-11-23T21:41:22.336Z,21.05
2022-11-23T21:43:29.210Z,20.27
2022-11-23T21:45:41.828Z,16.52
2022-11-23T21:47:55.603Z,15.25
2022-11-23T21:50:01.094Z,13.02
2022-11-23T21:52:05.100Z,13.55
2022-11-23T21:54:07.361Z,9.20
2022-11-23T21:56:10.652Z,6.30
2022-11-23T21:58:12.604Z,4.53
2022-11-23T22:00:15.954Z,8.48
2022-11-23T22:02:17.569Z,9.77
2022-11-23T22:04:19.189Z,15.48
2022-11-23T22:06:21.382Z,9.38
2022-11-23T22:08:30.582Z,13.38
2022-11-23T22:10:32.043Z,8.07
2022-11-23T22:12:33.469Z,11.55
2022-11-23T22:14:37.597Z,11.65
2022-11-23T22:16:41.386Z,7.30
2022-11-23T22:20:45.127Z,9.43
2022-11-23T22:22:46.785Z,7.30
2022-11-23T22:24:48.498Z,5.13
2022-11-23T22:26:50.116Z,4.60
2022-11-23T22:28:51.867Z,7.75
2022-11-23T22:30:53.483Z,5.00
2022-11-23T22:32:56.065Z,4.53
2022-11-23T22:34:57.939Z,5.20
2022-11-23T22:37:00.098Z,3.90
2022-11-23T22:39:02.810Z,7.13
2022-11-23T22:41:05.911Z,5.60
2022-11-23T22:43:07.504Z,6.07
2022-11-23T22:45:09.021Z,7.20
2022-11-23T22:47:11.007Z,6.22
2022-11-23T22:49:12.638Z,7.28
2022-11-23T22:51:15.484Z,8.75
2022-11-23T22:53:16.972Z,7.45
2022-11-23T22:55:18.630Z,4.43
2022-11-23T22:57:20.493Z,8.57
2022-11-23T22:59:22.182Z,5.15
2022-11-23T23:01:26.258Z,5.53
2022-11-23T23:03:27.834Z,7.00
2022-11-23T23:05:29.580Z,8.70
2022-11-23T23:07:31.472Z,5.43
2022-11-23T23:09:33.104Z,5.30
2022-11-23T23:11:35.179Z,4.72
2022-11-23T23:13:37.050Z,9.30
2022-11-23T23:15:38.859Z,3.83
2022-11-23T23:17:40.730Z,5.25
2022-11-23T23:19:42.294Z,4.60
2022-11-23T23:21:43.874Z,5.00
2022-11-23T23:23:46.624Z,2.55
2022-11-23T23:25:48.578Z,5.90
2022-11-23T23:27:50.106Z,2.78
2022-11-23T23:29:52.085Z,5.32
2022-11-23T23:31:53.682Z,6.40
2022-11-23T23:33:55.485Z,4.90
2022-11-23T23:35:57.301Z,5.13
2022-11-23T23:37:58.738Z,3.28
2022-11-23T23:40:00.639Z,2.35
2022-11-23T23:42:02.650Z,5.18
2022-11-23T23:44:04.210Z,3.42
2022-11-23T23:46:07.322Z,6.75
2022-11-23T23:48:08.891Z,7.35
2022-11-23T23:50:10.632Z,3.92
2022-11-23T23:52:12.256Z,3.30
2022-11-23T23:54:14.099Z,3.47
2022-11-23T23:56:22.916Z,4.55
2022-11-23T23:58:24.950Z,6.97
